Amatorska stacja pogodowa orzepowice24.pl
Bogaty zestaw statystyk w zakładce „DOKŁADNE STATYSTYKI”

Visit our other weather sites:

Template documentation
and downloads

SZCZEGÓŁOWE STATYSTYKI

weather34-X5


You find our weather info also at:

UK Metoffice

WeatherCloud

Weather Underground

AWEKAS

WeatherlinkIP

Citizen Weather Observer Program (CWOP)

HAMweather, WeatherForYou, PWS Weather


No particular awareness of the weather is required.    There are no Weather-warnings

Raporty METAR w pobliżu


Warning: A non-numeric value encountered in /var/www/orzepowice24.pl/weather28/metar/wsMetarTxt.php on line 609

Warning: A non-numeric value encountered in /var/www/orzepowice24.pl/weather28/metar/wsMetarTxt.php on line 609

Warning: A non-numeric value encountered in /var/www/orzepowice24.pl/weather28/metar/metarDisplay.php on line 166

Warning: A non-numeric value encountered in /var/www/orzepowice24.pl/weather28/metar/wsMetarTxt.php on line 609
   
EPKT - Katowice
Zaktualizowano: 23-10-2018 14:30
Całkowite zachmurzenie  
Całkowite zachmurzenie  
   Wiatr: SW 33.3 km/h
Wiatr: SW 33.3 km/h
Temperatura: 8°C
Wind Chill: 4°C
Punkt rosy: 2°C
Wilgotność: 66%
Ciśnienie: 1011 hPa
Zachmurzenie: Całkowite zachmurzenie
Widoczność: Więcej niż 10 km
Szczegóły dotyczące chmur: W większości pochmurnie 4200 ft,
Całkowite zachmurzenie 4800 ft
EPKT 231230Z 23018KT 9999 BKN042 OVC048 08/02 Q1011
EPKK - Kraków
Zaktualizowano: 23-10-2018 14:30
Niewiele chmur  
Niewiele chmur  
   Wiatr: SW 35.2 km/h
Wiatr: SW 35.2 km/h
Temperatura: 9°C
Wind Chill: 5°C
Punkt rosy: 2°C
Wilgotność: 62%
Ciśnienie: 1012 hPa
Zachmurzenie: Niewiele chmur
Widoczność: Więcej niż 10 km
Szczegóły dotyczące chmur: Niewiele chmur 6000 ft
EPKK 231230Z 23019KT 9999 FEW060 09/02 Q1012
LKMT - Ostrava
Zaktualizowano: 23-10-2018 14:30
Bezchmurne niebo  
Bezchmurne niebo  
   Wiatr: SW 29.6 km/h
Wiatr: SW 29.6 km/h
Temperatura: 9°C
Wind Chill: 6°C
Punkt rosy: 2°C
Wilgotność: 62%
Ciśnienie: 1015 hPa
Widoczność: Więcej niż 10 km
Szczegóły dotyczące chmur: Bezchmurne niebo
LKMT 231230Z 22016KT CAVOK 09/02 Q1015 NOSIG
LZZI - Žilina
Zaktualizowano: 23-10-2018 14:30
Całkowite zachmurzenie  
Całkowite zachmurzenie  
   Wiatr: WSW 24.1 km/h
Wiatr: WSW 24.1 km/h
Temperatura: 9°C
Wind Chill: 6°C
Punkt rosy: 2°C
Wilgotność: 62%
Ciśnienie: 1016 hPa
Zachmurzenie: Całkowite zachmurzenie
Widoczność: Więcej niż 10 km
Szczegóły dotyczące chmur: Niewiele chmur 4300 ft,
Częściowe Zachmurzenie 5200 ft,
Całkowite zachmurzenie 10000 ft
LZZI 231230Z 25013KT 9999 FEW043 SCT052 OVC100 09/02 Q1016
  

Skrypt opracowany przez  Saratoga-weather.org Dostosowany do szablonu przez  Weerstation Leuven